sensor_id;sensor_type;location;lat;lon;timestamp;P1;durP1;ratioP1;P2;durP2;ratioP2
6432;SDS011;3249;42.690;23.260;2023-02-28T00:00:20;25.07;;;15.83;;
6432;SDS011;3249;42.690;23.260;2023-02-28T00:02:50;24.73;;;16.33;;
6432;SDS011;3249;42.690;23.260;2023-02-28T00:05:21;19.80;;;15.27;;
6432;SDS011;3249;42.690;23.260;2023-02-28T00:07:51;19.17;;;14.00;;
6432;SDS011;3249;42.690;23.260;2023-02-28T00:10:22;18.73;;;13.97;;
6432;SDS011;3249;42.690;23.260;2023-02-28T00:12:55;20.23;;;14.57;;
6432;SDS011;3249;42.690;23.260;2023-02-28T00:15:27;18.73;;;13.83;;
6432;SDS011;3249;42.690;23.260;2023-02-28T00:17:56;18.97;;;15.00;;
6432;SDS011;3249;42.690;23.260;2023-02-28T00:20:25;21.37;;;15.10;;
6432;SDS011;3249;42.690;23.260;2023-02-28T00:22:55;21.87;;;15.60;;
6432;SDS011;3249;42.690;23.260;2023-02-28T00:25:25;21.70;;;15.47;;
6432;SDS011;3249;42.690;23.260;2023-02-28T00:27:56;25.07;;;16.50;;
6432;SDS011;3249;42.690;23.260;2023-02-28T00:30:25;19.83;;;15.83;;
6432;SDS011;3249;42.690;23.260;2023-02-28T00:32:54;24.33;;;16.47;;
6432;SDS011;3249;42.690;23.260;2023-02-28T00:35:24;22.00;;;16.20;;
6432;SDS011;3249;42.690;23.260;2023-02-28T00:37:53;28.87;;;19.10;;
6432;SDS011;3249;42.690;23.260;2023-02-28T00:40:22;27.37;;;19.97;;
6432;SDS011;3249;42.690;23.260;2023-02-28T00:42:52;27.97;;;20.43;;
6432;SDS011;3249;42.690;23.260;2023-02-28T00:45:23;29.10;;;20.30;;
6432;SDS011;3249;42.690;23.260;2023-02-28T00:47:52;30.13;;;21.30;;
6432;SDS011;3249;42.690;23.260;2023-02-28T00:50:21;32.87;;;22.10;;
6432;SDS011;3249;42.690;23.260;2023-02-28T00:52:50;36.77;;;23.33;;
6432;SDS011;3249;42.690;23.260;2023-02-28T00:55:19;34.83;;;24.00;;
6432;SDS011;3249;42.690;23.260;2023-02-28T00:57:48;35.30;;;22.47;;
6432;SDS011;3249;42.690;23.260;2023-02-28T01:00:17;39.00;;;23.07;;
6432;SDS011;3249;42.690;23.260;2023-02-28T01:02:52;38.10;;;23.40;;
6432;SDS011;3249;42.690;23.260;2023-02-28T01:05:21;33.07;;;21.93;;
6432;SDS011;3249;42.690;23.260;2023-02-28T01:07:50;40.77;;;24.73;;
6432;SDS011;3249;42.690;23.260;2023-02-28T01:10:19;35.87;;;22.70;;
6432;SDS011;3249;42.690;23.260;2023-02-28T01:12:48;34.37;;;21.97;;
6432;SDS011;3249;42.690;23.260;2023-02-28T01:15:17;36.63;;;21.80;;
6432;SDS011;3249;42.690;23.260;2023-02-28T01:17:46;35.63;;;22.87;;
6432;SDS011;3249;42.690;23.260;2023-02-28T01:20:18;34.77;;;21.33;;
6432;SDS011;3249;42.690;23.260;2023-02-28T01:22:47;36.33;;;23.37;;
6432;SDS011;3249;42.690;23.260;2023-02-28T01:25:16;39.67;;;25.77;;
6432;SDS011;3249;42.690;23.260;2023-02-28T01:27:45;37.83;;;22.97;;
6432;SDS011;3249;42.690;23.260;2023-02-28T01:30:14;35.03;;;22.37;;
6432;SDS011;3249;42.690;23.260;2023-02-28T01:32:45;33.67;;;21.57;;
6432;SDS011;3249;42.690;23.260;2023-02-28T01:35:20;33.40;;;21.90;;
6432;SDS011;3249;42.690;23.260;2023-02-28T01:37:49;30.20;;;17.87;;
6432;SDS011;3249;42.690;23.260;2023-02-28T01:40:18;31.37;;;17.97;;
6432;SDS011;3249;42.690;23.260;2023-02-28T01:42:47;28.07;;;17.63;;
6432;SDS011;3249;42.690;23.260;2023-02-28T01:45:21;28.27;;;16.67;;
6432;SDS011;3249;42.690;23.260;2023-02-28T01:47:54;28.83;;;17.80;;
6432;SDS011;3249;42.690;23.260;2023-02-28T01:50:29;34.30;;;17.10;;
6432;SDS011;3249;42.690;23.260;2023-02-28T01:53:04;33.17;;;19.03;;
6432;SDS011;3249;42.690;23.260;2023-02-28T01:55:35;32.33;;;20.20;;
6432;SDS011;3249;42.690;23.260;2023-02-28T01:58:05;37.30;;;20.93;;
6432;SDS011;3249;42.690;23.260;2023-02-28T02:00:35;34.00;;;21.27;;
6432;SDS011;3249;42.690;23.260;2023-02-28T02:03:07;40.03;;;20.60;;
6432;SDS011;3249;42.690;23.260;2023-02-28T02:05:41;49.90;;;22.87;;
6432;SDS011;3249;42.690;23.260;2023-02-28T02:08:15;66.97;;;23.70;;
6432;SDS011;3249;42.690;23.260;2023-02-28T02:10:46;44.43;;;21.47;;
6432;SDS011;3249;42.690;23.260;2023-02-28T02:13:23;38.73;;;20.57;;
6432;SDS011;3249;42.690;23.260;2023-02-28T02:16:02;39.57;;;21.50;;
6432;SDS011;3249;42.690;23.260;2023-02-28T02:18:40;38.47;;;20.90;;
6432;SDS011;3249;42.690;23.260;2023-02-28T02:21:29;42.40;;;22.60;;
6432;SDS011;3249;42.690;23.260;2023-02-28T02:24:29;43.23;;;22.57;;
6432;SDS011;3249;42.690;23.260;2023-02-28T02:27:20;40.17;;;22.23;;
6432;SDS011;3249;42.690;23.260;2023-02-28T02:36:15;44.17;;;22.50;;
6432;SDS011;3249;42.690;23.260;2023-02-28T02:38:51;44.73;;;23.10;;
6432;SDS011;3249;42.690;23.260;2023-02-28T02:41:28;46.83;;;21.13;;
6432;SDS011;3249;42.690;23.260;2023-02-28T02:44:06;46.40;;;23.27;;
6432;SDS011;3249;42.690;23.260;2023-02-28T02:46:41;49.67;;;23.00;;
6432;SDS011;3249;42.690;23.260;2023-02-28T02:49:13;45.57;;;23.57;;
6432;SDS011;3249;42.690;23.260;2023-02-28T02:51:48;47.80;;;23.03;;
6432;SDS011;3249;42.690;23.260;2023-02-28T02:54:20;44.57;;;23.03;;
6432;SDS011;3249;42.690;23.260;2023-02-28T02:56:54;52.87;;;25.27;;
6432;SDS011;3249;42.690;23.260;2023-02-28T02:59:25;65.17;;;25.63;;
6432;SDS011;3249;42.690;23.260;2023-02-28T03:01:57;55.03;;;26.10;;
6432;SDS011;3249;42.690;23.260;2023-02-28T03:04:32;57.30;;;25.80;;
6432;SDS011;3249;42.690;23.260;2023-02-28T03:07:13;56.73;;;26.07;;
6432;SDS011;3249;42.690;23.260;2023-02-28T03:09:49;57.77;;;25.27;;
6432;SDS011;3249;42.690;23.260;2023-02-28T03:12:19;82.83;;;24.87;;
6432;SDS011;3249;42.690;23.260;2023-02-28T03:14:53;73.50;;;25.80;;
6432;SDS011;3249;42.690;23.260;2023-02-28T03:17:35;63.70;;;24.47;;
6432;SDS011;3249;42.690;23.260;2023-02-28T03:20:16;53.80;;;24.00;;
6432;SDS011;3249;42.690;23.260;2023-02-28T03:22:58;52.30;;;22.70;;
6432;SDS011;3249;42.690;23.260;2023-02-28T03:25:37;65.27;;;29.93;;
6432;SDS011;3249;42.690;23.260;2023-02-28T03:28:15;58.97;;;26.30;;
6432;SDS011;3249;42.690;23.260;2023-02-28T03:30:49;82.27;;;25.87;;
6432;SDS011;3249;42.690;23.260;2023-02-28T03:33:21;76.73;;;25.57;;
6432;SDS011;3249;42.690;23.260;2023-02-28T03:35:53;68.43;;;25.63;;
6432;SDS011;3249;42.690;23.260;2023-02-28T03:38:28;74.07;;;24.80;;
6432;SDS011;3249;42.690;23.260;2023-02-28T03:41:04;71.57;;;24.80;;
6432;SDS011;3249;42.690;23.260;2023-02-28T03:43:38;68.07;;;29.63;;
6432;SDS011;3249;42.690;23.260;2023-02-28T03:46:11;97.07;;;31.47;;
6432;SDS011;3249;42.690;23.260;2023-02-28T03:48:44;73.90;;;32.17;;
6432;SDS011;3249;42.690;23.260;2023-02-28T03:51:17;74.70;;;33.03;;
6432;SDS011;3249;42.690;23.260;2023-02-28T03:53:53;85.17;;;35.87;;
6432;SDS011;3249;42.690;23.260;2023-02-28T03:56:27;66.10;;;28.30;;
6432;SDS011;3249;42.690;23.260;2023-02-28T03:59:01;78.00;;;31.20;;
6432;SDS011;3249;42.690;23.260;2023-02-28T04:01:35;76.13;;;26.87;;
6432;SDS011;3249;42.690;23.260;2023-02-28T04:04:06;57.87;;;26.77;;
6432;SDS011;3249;42.690;23.260;2023-02-28T04:06:41;71.20;;;27.30;;
6432;SDS011;3249;42.690;23.260;2023-02-28T04:09:14;71.00;;;35.40;;
6432;SDS011;3249;42.690;23.260;2023-02-28T04:11:43;81.30;;;27.70;;
6432;SDS011;3249;42.690;23.260;2023-02-28T04:14:14;67.73;;;27.67;;
6432;SDS011;3249;42.690;23.260;2023-02-28T04:16:43;56.37;;;26.77;;
6432;SDS011;3249;42.690;23.260;2023-02-28T04:19:13;65.80;;;34.03;;
6432;SDS011;3249;42.690;23.260;2023-02-28T04:21:44;64.13;;;32.20;;
6432;SDS011;3249;42.690;23.260;2023-02-28T04:24:17;58.93;;;26.57;;
6432;SDS011;3249;42.690;23.260;2023-02-28T04:26:48;70.90;;;30.77;;
6432;SDS011;3249;42.690;23.260;2023-02-28T04:29:19;78.47;;;29.47;;
6432;SDS011;3249;42.690;23.260;2023-02-28T04:31:49;64.00;;;28.13;;
6432;SDS011;3249;42.690;23.260;2023-02-28T04:34:19;51.77;;;25.37;;
6432;SDS011;3249;42.690;23.260;2023-02-28T04:36:49;54.27;;;26.80;;
6432;SDS011;3249;42.690;23.260;2023-02-28T04:39:22;55.67;;;24.50;;
6432;SDS011;3249;42.690;23.260;2023-02-28T04:41:52;58.40;;;29.13;;
6432;SDS011;3249;42.690;23.260;2023-02-28T04:44:21;60.23;;;27.43;;
6432;SDS011;3249;42.690;23.260;2023-02-28T04:46:50;66.00;;;25.80;;
6432;SDS011;3249;42.690;23.260;2023-02-28T04:49:19;58.00;;;25.23;;
6432;SDS011;3249;42.690;23.260;2023-02-28T04:51:48;50.17;;;26.07;;
6432;SDS011;3249;42.690;23.260;2023-02-28T04:54:18;62.43;;;29.77;;
6432;SDS011;3249;42.690;23.260;2023-02-28T04:56:49;65.33;;;29.37;;
6432;SDS011;3249;42.690;23.260;2023-02-28T04:59:18;55.07;;;26.40;;
6432;SDS011;3249;42.690;23.260;2023-02-28T05:01:47;56.70;;;27.63;;
6432;SDS011;3249;42.690;23.260;2023-02-28T05:04:17;53.87;;;25.53;;
6432;SDS011;3249;42.690;23.260;2023-02-28T05:06:46;56.43;;;26.73;;
6432;SDS011;3249;42.690;23.260;2023-02-28T05:09:15;62.00;;;25.13;;
6432;SDS011;3249;42.690;23.260;2023-02-28T05:11:44;63.10;;;29.50;;
6432;SDS011;3249;42.690;23.260;2023-02-28T05:14:15;69.13;;;28.23;;
6432;SDS011;3249;42.690;23.260;2023-02-28T05:16:44;46.97;;;24.27;;
6432;SDS011;3249;42.690;23.260;2023-02-28T05:19:13;59.77;;;24.57;;
6432;SDS011;3249;42.690;23.260;2023-02-28T05:21:48;54.13;;;25.17;;
6432;SDS011;3249;42.690;23.260;2023-02-28T05:24:19;75.37;;;26.17;;
6432;SDS011;3249;42.690;23.260;2023-02-28T05:26:49;66.50;;;24.37;;
6432;SDS011;3249;42.690;23.260;2023-02-28T05:29:22;69.20;;;28.40;;
6432;SDS011;3249;42.690;23.260;2023-02-28T05:31:51;99.17;;;25.57;;
6432;SDS011;3249;42.690;23.260;2023-02-28T05:34:20;61.50;;;29.33;;
6432;SDS011;3249;42.690;23.260;2023-02-28T05:36:49;71.67;;;28.60;;
6432;SDS011;3249;42.690;23.260;2023-02-28T05:39:17;74.00;;;30.33;;
6432;SDS011;3249;42.690;23.260;2023-02-28T05:41:47;80.27;;;28.07;;
6432;SDS011;3249;42.690;23.260;2023-02-28T05:44:16;60.23;;;26.87;;
6432;SDS011;3249;42.690;23.260;2023-02-28T05:46:47;77.87;;;33.07;;
6432;SDS011;3249;42.690;23.260;2023-02-28T05:49:16;59.23;;;27.83;;
6432;SDS011;3249;42.690;23.260;2023-02-28T05:51:45;62.77;;;26.20;;
6432;SDS011;3249;42.690;23.260;2023-02-28T05:54:14;63.57;;;27.30;;
6432;SDS011;3249;42.690;23.260;2023-02-28T05:56:43;60.50;;;28.30;;
6432;SDS011;3249;42.690;23.260;2023-02-28T05:59:12;58.13;;;27.47;;
6432;SDS011;3249;42.690;23.260;2023-02-28T06:01:42;67.83;;;29.37;;
6432;SDS011;3249;42.690;23.260;2023-02-28T06:04:17;54.50;;;27.63;;
6432;SDS011;3249;42.690;23.260;2023-02-28T06:06:47;68.27;;;29.03;;
6432;SDS011;3249;42.690;23.260;2023-02-28T06:09:17;69.03;;;29.83;;
6432;SDS011;3249;42.690;23.260;2023-02-28T06:11:46;71.77;;;31.87;;
6432;SDS011;3249;42.690;23.260;2023-02-28T06:14:16;68.40;;;31.40;;
6432;SDS011;3249;42.690;23.260;2023-02-28T06:16:46;73.70;;;34.27;;
6432;SDS011;3249;42.690;23.260;2023-02-28T06:19:17;76.33;;;34.90;;
6432;SDS011;3249;42.690;23.260;2023-02-28T06:21:48;71.63;;;34.80;;
6432;SDS011;3249;42.690;23.260;2023-02-28T06:24:18;66.90;;;33.20;;
6432;SDS011;3249;42.690;23.260;2023-02-28T06:26:47;62.07;;;32.33;;
6432;SDS011;3249;42.690;23.260;2023-02-28T06:29:16;65.93;;;30.60;;
6432;SDS011;3249;42.690;23.260;2023-02-28T06:31:45;68.57;;;32.67;;
6432;SDS011;3249;42.690;23.260;2023-02-28T06:34:15;61.40;;;30.43;;
6432;SDS011;3249;42.690;23.260;2023-02-28T06:36:46;61.87;;;30.03;;
6432;SDS011;3249;42.690;23.260;2023-02-28T06:39:18;59.87;;;31.17;;
6432;SDS011;3249;42.690;23.260;2023-02-28T06:41:47;64.17;;;32.43;;
6432;SDS011;3249;42.690;23.260;2023-02-28T06:44:18;59.43;;;33.90;;
6432;SDS011;3249;42.690;23.260;2023-02-28T06:46:47;64.73;;;33.77;;
6432;SDS011;3249;42.690;23.260;2023-02-28T06:49:18;59.47;;;30.97;;
6432;SDS011;3249;42.690;23.260;2023-02-28T06:51:47;62.13;;;33.00;;
6432;SDS011;3249;42.690;23.260;2023-02-28T06:54:16;62.50;;;32.53;;
6432;SDS011;3249;42.690;23.260;2023-02-28T06:56:45;54.80;;;31.30;;
6432;SDS011;3249;42.690;23.260;2023-02-28T06:59:15;59.20;;;31.53;;
6432;SDS011;3249;42.690;23.260;2023-02-28T07:01:44;49.87;;;29.90;;
6432;SDS011;3249;42.690;23.260;2023-02-28T07:04:13;55.00;;;29.77;;
6432;SDS011;3249;42.690;23.260;2023-02-28T07:06:45;53.37;;;30.77;;
6432;SDS011;3249;42.690;23.260;2023-02-28T07:09:13;62.33;;;37.53;;
6432;SDS011;3249;42.690;23.260;2023-02-28T07:11:44;53.80;;;31.83;;
6432;SDS011;3249;42.690;23.260;2023-02-28T07:14:13;62.17;;;33.83;;
6432;SDS011;3249;42.690;23.260;2023-02-28T07:16:42;58.57;;;33.03;;
6432;SDS011;3249;42.690;23.260;2023-02-28T07:19:11;59.70;;;34.57;;
6432;SDS011;3249;42.690;23.260;2023-02-28T07:21:40;62.50;;;37.37;;
6432;SDS011;3249;42.690;23.260;2023-02-28T07:24:13;62.73;;;35.80;;
6432;SDS011;3249;42.690;23.260;2023-02-28T07:26:43;49.03;;;30.87;;
6432;SDS011;3249;42.690;23.260;2023-02-28T07:29:12;57.23;;;33.70;;
6432;SDS011;3249;42.690;23.260;2023-02-28T07:31:41;54.40;;;33.33;;
6432;SDS011;3249;42.690;23.260;2023-02-28T07:34:10;51.67;;;31.17;;
6432;SDS011;3249;42.690;23.260;2023-02-28T07:36:39;54.37;;;30.57;;
6432;SDS011;3249;42.690;23.260;2023-02-28T07:39:08;64.67;;;32.97;;
6432;SDS011;3249;42.690;23.260;2023-02-28T07:41:40;59.67;;;32.93;;
6432;SDS011;3249;42.690;23.260;2023-02-28T07:44:11;62.97;;;30.77;;
6432;SDS011;3249;42.690;23.260;2023-02-28T07:46:40;60.13;;;30.80;;
6432;SDS011;3249;42.690;23.260;2023-02-28T07:49:09;63.07;;;33.33;;
6432;SDS011;3249;42.690;23.260;2023-02-28T07:51:38;62.90;;;30.63;;
6432;SDS011;3249;42.690;23.260;2023-02-28T07:54:07;56.87;;;29.10;;
6432;SDS011;3249;42.690;23.260;2023-02-28T07:56:36;56.73;;;30.97;;
6432;SDS011;3249;42.690;23.260;2023-02-28T07:59:07;55.83;;;30.47;;
6432;SDS011;3249;42.690;23.260;2023-02-28T08:01:36;60.40;;;29.20;;
6432;SDS011;3249;42.690;23.260;2023-02-28T08:04:10;59.43;;;28.57;;
6432;SDS011;3249;42.690;23.260;2023-02-28T08:06:39;51.13;;;28.37;;
6432;SDS011;3249;42.690;23.260;2023-02-28T08:09:08;59.10;;;29.60;;
6432;SDS011;3249;42.690;23.260;2023-02-28T08:11:37;59.93;;;32.20;;
6432;SDS011;3249;42.690;23.260;2023-02-28T08:14:08;60.27;;;30.17;;
6432;SDS011;3249;42.690;23.260;2023-02-28T08:16:37;67.80;;;30.53;;
6432;SDS011;3249;42.690;23.260;2023-02-28T08:19:08;51.60;;;27.77;;
6432;SDS011;3249;42.690;23.260;2023-02-28T08:21:37;52.63;;;29.10;;
6432;SDS011;3249;42.690;23.260;2023-02-28T08:24:06;53.40;;;29.33;;
6432;SDS011;3249;42.690;23.260;2023-02-28T08:26:35;53.70;;;28.57;;
6432;SDS011;3249;42.690;23.260;2023-02-28T08:29:04;53.90;;;29.73;;
6432;SDS011;3249;42.690;23.260;2023-02-28T08:31:36;47.40;;;27.30;;
6432;SDS011;3249;42.690;23.260;2023-02-28T08:34:05;50.83;;;28.87;;
6432;SDS011;3249;42.690;23.260;2023-02-28T08:36:35;49.47;;;27.03;;
6432;SDS011;3249;42.690;23.260;2023-02-28T08:39:04;53.03;;;29.10;;
6432;SDS011;3249;42.690;23.260;2023-02-28T08:41:34;47.67;;;26.50;;
6432;SDS011;3249;42.690;23.260;2023-02-28T08:44:03;55.47;;;27.17;;
6432;SDS011;3249;42.690;23.260;2023-02-28T08:46:32;53.47;;;27.20;;
6432;SDS011;3249;42.690;23.260;2023-02-28T08:49:04;50.27;;;26.57;;
6432;SDS011;3249;42.690;23.260;2023-02-28T08:51:33;53.97;;;28.40;;
6432;SDS011;3249;42.690;23.260;2023-02-28T08:54:02;48.63;;;27.60;;
6432;SDS011;3249;42.690;23.260;2023-02-28T08:56:31;52.57;;;27.90;;
6432;SDS011;3249;42.690;23.260;2023-02-28T08:58:59;47.77;;;27.20;;
6432;SDS011;3249;42.690;23.260;2023-02-28T09:01:29;47.73;;;27.87;;
6432;SDS011;3249;42.690;23.260;2023-02-28T09:03:58;56.13;;;28.90;;
6432;SDS011;3249;42.690;23.260;2023-02-28T09:06:30;51.43;;;29.00;;
6432;SDS011;3249;42.690;23.260;2023-02-28T09:09:00;62.13;;;30.60;;
6432;SDS011;3249;42.690;23.260;2023-02-28T09:11:31;59.37;;;32.47;;
6432;SDS011;3249;42.690;23.260;2023-02-28T09:14:00;57.80;;;31.23;;
6432;SDS011;3249;42.690;23.260;2023-02-28T09:16:30;57.53;;;29.90;;
6432;SDS011;3249;42.690;23.260;2023-02-28T09:19:00;59.20;;;29.40;;
6432;SDS011;3249;42.690;23.260;2023-02-28T09:21:32;55.00;;;30.50;;
6432;SDS011;3249;42.690;23.260;2023-02-28T09:24:01;50.90;;;28.93;;
6432;SDS011;3249;42.690;23.260;2023-02-28T09:26:30;48.37;;;28.17;;
6432;SDS011;3249;42.690;23.260;2023-02-28T09:28:59;55.37;;;29.90;;
6432;SDS011;3249;42.690;23.260;2023-02-28T09:31:29;53.80;;;29.07;;
6432;SDS011;3249;42.690;23.260;2023-02-28T09:33:59;51.20;;;29.10;;
6432;SDS011;3249;42.690;23.260;2023-02-28T09:36:28;46.57;;;28.73;;
6432;SDS011;3249;42.690;23.260;2023-02-28T09:39:04;54.10;;;30.20;;
6432;SDS011;3249;42.690;23.260;2023-02-28T09:41:36;53.80;;;28.87;;
6432;SDS011;3249;42.690;23.260;2023-02-28T09:44:15;58.63;;;29.80;;
6432;SDS011;3249;42.690;23.260;2023-02-28T09:46:51;55.90;;;30.30;;
6432;SDS011;3249;42.690;23.260;2023-02-28T09:49:27;51.43;;;29.97;;
6432;SDS011;3249;42.690;23.260;2023-02-28T09:52:21;53.73;;;30.23;;
6432;SDS011;3249;42.690;23.260;2023-02-28T09:58:20;51.83;;;29.47;;
6432;SDS011;3249;42.690;23.260;2023-02-28T10:00:58;52.07;;;30.03;;
6432;SDS011;3249;42.690;23.260;2023-02-28T10:03:32;51.47;;;28.50;;
6432;SDS011;3249;42.690;23.260;2023-02-28T10:06:08;50.40;;;30.43;;
6432;SDS011;3249;42.690;23.260;2023-02-28T10:08:44;57.60;;;30.10;;
6432;SDS011;3249;42.690;23.260;2023-02-28T10:11:23;47.93;;;30.27;;
6432;SDS011;3249;42.690;23.260;2023-02-28T10:13:54;52.80;;;30.90;;
6432;SDS011;3249;42.690;23.260;2023-02-28T10:16:31;48.20;;;31.00;;
6432;SDS011;3249;42.690;23.260;2023-02-28T10:19:05;48.17;;;29.60;;
6432;SDS011;3249;42.690;23.260;2023-02-28T10:21:42;52.17;;;30.63;;
6432;SDS011;3249;42.690;23.260;2023-02-28T10:24:16;53.03;;;33.03;;
6432;SDS011;3249;42.690;23.260;2023-02-28T10:26:52;53.67;;;32.20;;
6432;SDS011;3249;42.690;23.260;2023-02-28T10:29:25;51.67;;;32.53;;
6432;SDS011;3249;42.690;23.260;2023-02-28T10:31:57;50.40;;;33.00;;
6432;SDS011;3249;42.690;23.260;2023-02-28T10:34:30;51.53;;;35.23;;
6432;SDS011;3249;42.690;23.260;2023-02-28T10:36:59;54.50;;;34.90;;
6432;SDS011;3249;42.690;23.260;2023-02-28T10:39:33;53.07;;;33.23;;
6432;SDS011;3249;42.690;23.260;2023-02-28T10:42:21;50.07;;;31.73;;
6432;SDS011;3249;42.690;23.260;2023-02-28T10:45:05;36.27;;;22.00;;
6432;SDS011;3249;42.690;23.260;2023-02-28T10:47:41;43.43;;;26.87;;
6432;SDS011;3249;42.690;23.260;2023-02-28T10:50:30;36.30;;;24.47;;
6432;SDS011;3249;42.690;23.260;2023-02-28T10:53:21;32.63;;;17.57;;
6432;SDS011;3249;42.690;23.260;2023-02-28T10:56:00;31.90;;;13.23;;
6432;SDS011;3249;42.690;23.260;2023-02-28T10:58:48;25.47;;;13.13;;
6432;SDS011;3249;42.690;23.260;2023-02-28T11:01:24;24.53;;;13.77;;
6432;SDS011;3249;42.690;23.260;2023-02-28T11:04:02;21.93;;;13.60;;
6432;SDS011;3249;42.690;23.260;2023-02-28T11:06:47;25.93;;;14.47;;
6432;SDS011;3249;42.690;23.260;2023-02-28T11:09:26;23.43;;;12.93;;
6432;SDS011;3249;42.690;23.260;2023-02-28T11:11:57;25.10;;;12.40;;
6432;SDS011;3249;42.690;23.260;2023-02-28T11:14:35;31.07;;;14.37;;
6432;SDS011;3249;42.690;23.260;2023-02-28T11:17:20;20.23;;;12.63;;
6432;SDS011;3249;42.690;23.260;2023-02-28T11:19:51;28.10;;;13.80;;
6432;SDS011;3249;42.690;23.260;2023-02-28T11:22:23;27.87;;;12.33;;
6432;SDS011;3249;42.690;23.260;2023-02-28T11:24:57;22.73;;;13.17;;
6432;SDS011;3249;42.690;23.260;2023-02-28T11:27:42;42.37;;;23.57;;
6432;SDS011;3249;42.690;23.260;2023-02-28T11:30:31;40.40;;;26.97;;
6432;SDS011;3249;42.690;23.260;2023-02-28T11:33:18;46.70;;;33.27;;
6432;SDS011;3249;42.690;23.260;2023-02-28T11:35:50;22.47;;;15.60;;
6432;SDS011;3249;42.690;23.260;2023-02-28T11:38:25;25.30;;;14.57;;
6432;SDS011;3249;42.690;23.260;2023-02-28T11:40:59;27.60;;;14.40;;
6432;SDS011;3249;42.690;23.260;2023-02-28T11:43:43;39.03;;;14.40;;
6432;SDS011;3249;42.690;23.260;2023-02-28T11:46:26;30.83;;;15.83;;
6432;SDS011;3249;42.690;23.260;2023-02-28T11:49:03;48.50;;;24.47;;
6432;SDS011;3249;42.690;23.260;2023-02-28T11:51:44;39.17;;;16.93;;
6432;SDS011;3249;42.690;23.260;2023-02-28T11:54:23;30.47;;;18.30;;
6432;SDS011;3249;42.690;23.260;2023-02-28T11:57:23;21.80;;;12.70;;
6432;SDS011;3249;42.690;23.260;2023-02-28T12:00:07;27.97;;;14.27;;
6432;SDS011;3249;42.690;23.260;2023-02-28T12:02:49;25.37;;;14.57;;
6432;SDS011;3249;42.690;23.260;2023-02-28T12:05:31;43.00;;;14.53;;
6432;SDS011;3249;42.690;23.260;2023-02-28T12:08:13;33.90;;;15.23;;
6432;SDS011;3249;42.690;23.260;2023-02-28T12:10:57;28.73;;;13.80;;
6432;SDS011;3249;42.690;23.260;2023-02-28T12:13:36;28.40;;;14.60;;
6432;SDS011;3249;42.690;23.260;2023-02-28T12:16:30;25.13;;;14.67;;
6432;SDS011;3249;42.690;23.260;2023-02-28T12:19:22;24.93;;;15.63;;
6432;SDS011;3249;42.690;23.260;2023-02-28T12:28:08;25.13;;;14.97;;
6432;SDS011;3249;42.690;23.260;2023-02-28T12:39:20;23.10;;;13.80;;
6432;SDS011;3249;42.690;23.260;2023-02-28T12:45:39;17.97;;;11.93;;
6432;SDS011;3249;42.690;23.260;2023-02-28T12:54:07;20.13;;;10.97;;
6432;SDS011;3249;42.690;23.260;2023-02-28T13:23:40;22.27;;;11.63;;
6432;SDS011;3249;42.690;23.260;2023-02-28T14:21:14;23.40;;;10.70;;
6432;SDS011;3249;42.690;23.260;2023-02-28T14:24:01;17.53;;;11.27;;
6432;SDS011;3249;42.690;23.260;2023-02-28T14:26:57;21.77;;;10.43;;
6432;SDS011;3249;42.690;23.260;2023-02-28T14:29:41;24.37;;;10.90;;
6432;SDS011;3249;42.690;23.260;2023-02-28T14:32:33;25.93;;;11.03;;
6432;SDS011;3249;42.690;23.260;2023-02-28T14:35:15;26.77;;;10.67;;
6432;SDS011;3249;42.690;23.260;2023-02-28T14:37:59;17.57;;;10.60;;
6432;SDS011;3249;42.690;23.260;2023-02-28T14:40:29;23.33;;;11.93;;
6432;SDS011;3249;42.690;23.260;2023-02-28T14:43:02;16.77;;;11.37;;
6432;SDS011;3249;42.690;23.260;2023-02-28T14:45:35;18.90;;;11.40;;
6432;SDS011;3249;42.690;23.260;2023-02-28T14:48:11;22.07;;;11.13;;
6432;SDS011;3249;42.690;23.260;2023-02-28T14:50:58;23.20;;;10.93;;
6432;SDS011;3249;42.690;23.260;2023-02-28T14:53:34;20.13;;;11.37;;
6432;SDS011;3249;42.690;23.260;2023-02-28T14:56:06;23.17;;;11.63;;
6432;SDS011;3249;42.690;23.260;2023-02-28T14:58:55;21.77;;;12.17;;
6432;SDS011;3249;42.690;23.260;2023-02-28T15:01:25;17.93;;;10.50;;
6432;SDS011;3249;42.690;23.260;2023-02-28T15:03:58;19.93;;;9.47;;
6432;SDS011;3249;42.690;23.260;2023-02-28T15:06:32;29.60;;;11.40;;
6432;SDS011;3249;42.690;23.260;2023-02-28T15:09:14;20.80;;;9.73;;
6432;SDS011;3249;42.690;23.260;2023-02-28T15:11:47;18.03;;;10.67;;
6432;SDS011;3249;42.690;23.260;2023-02-28T15:14:19;16.87;;;9.90;;
6432;SDS011;3249;42.690;23.260;2023-02-28T15:16:51;18.83;;;10.70;;
6432;SDS011;3249;42.690;23.260;2023-02-28T15:19:33;23.60;;;10.97;;
6432;SDS011;3249;42.690;23.260;2023-02-28T15:22:07;19.23;;;11.20;;
6432;SDS011;3249;42.690;23.260;2023-02-28T15:24:57;18.83;;;10.50;;
6432;SDS011;3249;42.690;23.260;2023-02-28T15:27:33;19.90;;;10.87;;
6432;SDS011;3249;42.690;23.260;2023-02-28T15:30:25;19.03;;;10.70;;
6432;SDS011;3249;42.690;23.260;2023-02-28T15:33:18;18.77;;;10.20;;
6432;SDS011;3249;42.690;23.260;2023-02-28T15:35:50;16.90;;;10.43;;
6432;SDS011;3249;42.690;23.260;2023-02-28T15:38:33;31.33;;;20.90;;
6432;SDS011;3249;42.690;23.260;2023-02-28T15:44:30;33.77;;;20.73;;
6432;SDS011;3249;42.690;23.260;2023-02-28T15:47:16;19.03;;;12.80;;
6432;SDS011;3249;42.690;23.260;2023-02-28T15:49:48;18.30;;;12.57;;
6432;SDS011;3249;42.690;23.260;2023-02-28T15:52:26;27.03;;;14.17;;
6432;SDS011;3249;42.690;23.260;2023-02-28T15:55:02;24.10;;;11.53;;
6432;SDS011;3249;42.690;23.260;2023-02-28T15:57:47;15.43;;;9.53;;
6432;SDS011;3249;42.690;23.260;2023-02-28T16:10:26;16.60;;;10.13;;
6432;SDS011;3249;42.690;23.260;2023-02-28T16:13:09;20.10;;;11.27;;
6432;SDS011;3249;42.690;23.260;2023-02-28T16:15:42;24.20;;;14.60;;
6432;SDS011;3249;42.690;23.260;2023-02-28T16:18:17;21.47;;;13.93;;
6432;SDS011;3249;42.690;23.260;2023-02-28T16:20:48;24.70;;;15.67;;
6432;SDS011;3249;42.690;23.260;2023-02-28T16:23:18;21.23;;;15.10;;
6432;SDS011;3249;42.690;23.260;2023-02-28T16:26:02;28.30;;;20.83;;
6432;SDS011;3249;42.690;23.260;2023-02-28T16:28:33;22.03;;;15.53;;
6432;SDS011;3249;42.690;23.260;2023-02-28T16:31:17;23.10;;;18.63;;
6432;SDS011;3249;42.690;23.260;2023-02-28T16:34:10;23.77;;;17.27;;
6432;SDS011;3249;42.690;23.260;2023-02-28T16:37:33;18.13;;;13.97;;
6432;SDS011;3249;42.690;23.260;2023-02-28T16:40:19;18.40;;;12.23;;
6432;SDS011;3249;42.690;23.260;2023-02-28T16:42:57;19.10;;;13.13;;
6432;SDS011;3249;42.690;23.260;2023-02-28T16:45:28;16.73;;;12.10;;
6432;SDS011;3249;42.690;23.260;2023-02-28T16:48:01;14.00;;;10.77;;
6432;SDS011;3249;42.690;23.260;2023-02-28T16:50:34;14.80;;;10.47;;
6432;SDS011;3249;42.690;23.260;2023-02-28T16:53:04;19.37;;;10.27;;
6432;SDS011;3249;42.690;23.260;2023-02-28T16:55:33;9.47;;;8.13;;
6432;SDS011;3249;42.690;23.260;2023-02-28T16:58:10;9.80;;;8.67;;
6432;SDS011;3249;42.690;23.260;2023-02-28T17:00:43;15.20;;;9.90;;
6432;SDS011;3249;42.690;23.260;2023-02-28T17:03:18;12.63;;;8.53;;
6432;SDS011;3249;42.690;23.260;2023-02-28T17:05:51;11.20;;;8.77;;
6432;SDS011;3249;42.690;23.260;2023-02-28T17:08:20;11.17;;;7.70;;
6432;SDS011;3249;42.690;23.260;2023-02-28T17:10:54;9.03;;;8.13;;
6432;SDS011;3249;42.690;23.260;2023-02-28T17:13:32;12.77;;;7.53;;
6432;SDS011;3249;42.690;23.260;2023-02-28T17:16:22;14.57;;;8.23;;
6432;SDS011;3249;42.690;23.260;2023-02-28T17:18:57;12.20;;;9.10;;
6432;SDS011;3249;42.690;23.260;2023-02-28T17:21:28;14.20;;;7.37;;
6432;SDS011;3249;42.690;23.260;2023-02-28T17:23:58;11.03;;;7.80;;